createdAt,value
2017-08-24T00:00:45.311Z,53.77
2017-08-24T00:01:54.934Z,53.57
2017-08-24T00:03:04.549Z,53.38
2017-08-24T00:04:14.476Z,53.47
2017-08-24T00:05:24.413Z,53.19
2017-08-24T00:06:34.057Z,53.28
2017-08-24T00:07:44.057Z,53.77
2017-08-24T00:08:53.683Z,54.05
2017-08-24T00:10:03.597Z,53.86
2017-08-24T00:11:13.620Z,53.67
2017-08-24T00:12:23.268Z,53.57
2017-08-24T00:13:33.214Z,54.05
2017-08-24T00:14:42.843Z,53.57
2017-08-24T00:15:52.165Z,53.47
2017-08-24T00:17:02.680Z,53.47
2017-08-24T00:18:12.910Z,54.35
2017-08-24T00:19:23.145Z,53.57
2017-08-24T00:20:33.069Z,53.67
2017-08-24T00:21:42.987Z,54.05
2017-08-24T00:22:52.963Z,54.15
2017-08-24T00:24:02.889Z,54.25
2017-08-24T00:25:12.814Z,54.15
2017-08-24T00:26:22.730Z,53.96
2017-08-24T00:27:32.957Z,54.15
2017-08-24T00:28:42.934Z,53.96
2017-08-24T00:29:52.862Z,54.15
2017-08-24T00:31:02.791Z,53.96
2017-08-24T00:32:12.718Z,54.25
2017-08-24T00:33:22.330Z,54.25
2017-08-24T00:34:32.551Z,54.35
2017-08-24T00:35:42.162Z,54.35
2017-08-24T00:36:52.087Z,54.35
2017-08-24T00:38:02.002Z,54.35
2017-08-24T00:39:11.318Z,54.32
2017-08-24T00:40:21.261Z,54.25
2017-08-24T00:41:31.533Z,53.96
2017-08-24T00:42:41.462Z,54.25
2017-08-24T00:43:51.692Z,54.53
2017-08-24T00:45:01.608Z,54.44
2017-08-24T00:46:11.370Z,54.35
2017-08-24T00:47:21.055Z,54.32
2017-08-24T00:48:30.968Z,54.41
2017-08-24T00:49:40.645Z,54.51
2017-08-24T00:50:50.297Z,54.71
2017-08-24T00:52:00.617Z,54.51
2017-08-24T00:53:10.524Z,54.41
2017-08-24T00:54:20.459Z,54.61
2017-08-24T00:55:30.385Z,54.41
2017-08-24T00:56:40.613Z,54.99
2017-08-24T00:57:50.857Z,55.19
2017-08-24T00:59:00.776Z,54.99
2017-08-24T01:00:10.089Z,54.9
2017-08-24T01:01:20.324Z,54.8
2017-08-24T01:02:30.552Z,54.9
2017-08-24T01:03:40.567Z,54.9
2017-08-24T01:04:50.184Z,54.9
2017-08-24T01:05:59.797Z,54.99
2017-08-24T01:07:09.750Z,54.9
2017-08-24T01:08:19.054Z,55.29
2017-08-24T01:09:28.981Z,54.99
2017-08-24T01:10:38.918Z,54.9
2017-08-24T01:11:49.143Z,54.99
2017-08-24T01:12:58.751Z,55.11
2017-08-24T01:14:08.768Z,55.09
2017-08-24T01:15:18.734Z,54.83
2017-08-24T01:16:28.051Z,54.9
2017-08-24T01:17:37.689Z,54.61
2017-08-24T01:18:47.944Z,54.83
2017-08-24T01:19:57.282Z,54.99
2017-08-24T01:21:06.590Z,54.83
2017-08-24T01:22:16.848Z,54.83
2017-08-24T01:23:26.156Z,55.02
2017-08-24T01:24:36.371Z,54.63
2017-08-24T01:25:46.604Z,54.93
2017-08-24T01:26:56.392Z,54.83
2017-08-24T01:28:06.327Z,54.63
2017-08-24T01:29:16.550Z,54.83
2017-08-24T01:30:26.462Z,55.19
2017-08-24T01:31:36.379Z,54.99
2017-08-24T01:32:45.988Z,54.99
2017-08-24T01:33:55.899Z,54.99
2017-08-24T01:35:05.827Z,55.09
2017-08-24T01:36:15.767Z,55.29
2017-08-24T01:37:25.993Z,55.47
2017-08-24T01:38:36.208Z,55.57
2017-08-24T01:39:46.128Z,55.67
2017-08-24T01:40:56.350Z,55.47
2017-08-24T01:42:06.591Z,55.19
2017-08-24T01:43:16.819Z,55.57
2017-08-24T01:44:26.809Z,55.47
2017-08-24T01:45:36.446Z,55.38
2017-08-24T01:46:46.355Z,55.29
2017-08-24T01:47:55.991Z,55.87
2017-08-24T01:49:06.234Z,55.38
2017-08-24T01:50:15.857Z,55.57
2017-08-24T01:51:26.075Z,55.67
2017-08-24T01:52:35.997Z,55.57
2017-08-24T01:53:45.938Z,55.47
2017-08-24T01:54:56.010Z,55.96
2017-08-24T01:56:06.073Z,55.47
2017-08-24T01:57:16.303Z,55.38
2017-08-24T01:58:26.531Z,55.67
2017-08-24T01:59:36.755Z,55.96
2017-08-24T02:00:46.686Z,55.77
2017-08-24T02:01:56.617Z,55.87
2017-08-24T02:03:06.535Z,56.05
2017-08-24T02:04:16.601Z,56.05
2017-08-24T02:05:26.209Z,55.87
2017-08-24T02:06:35.570Z,55.67
2017-08-24T02:07:46.148Z,55.67
2017-08-24T02:08:55.770Z,56.05
2017-08-24T02:10:05.076Z,55.96
2017-08-24T02:11:14.704Z,55.77
2017-08-24T02:12:24.955Z,56.25
2017-08-24T02:13:34.583Z,55.96
2017-08-24T02:14:43.887Z,56.05
2017-08-24T02:15:53.542Z,56.05
2017-08-24T02:17:03.497Z,56.15
2017-08-24T02:18:13.741Z,56.45
2017-08-24T02:19:23.230Z,56.15
2017-08-24T02:20:33.158Z,56.35
2017-08-24T02:21:43.072Z,56.05
2017-08-24T02:22:53.001Z,56.25
2017-08-24T02:24:03.243Z,56.25
2017-08-24T02:25:12.550Z,56.45
2017-08-24T02:26:22.775Z,56.25
2017-08-24T02:27:31.764Z,56.05
2017-08-24T02:28:41.689Z,56.25
2017-08-24T02:29:51.312Z,56.15
2017-08-24T02:31:01.609Z,56.15
2017-08-24T02:32:11.831Z,56.03
2017-08-24T02:33:21.758Z,56.15
2017-08-24T02:34:31.971Z,56.35
2017-08-24T02:35:41.904Z,56.15
2017-08-24T02:36:51.829Z,55.93
2017-08-24T02:38:01.749Z,56.13
2017-08-24T02:39:11.967Z,55.93
2017-08-24T02:40:21.582Z,55.93
2017-08-24T02:41:31.808Z,56.22
2017-08-24T02:42:41.722Z,55.83
2017-08-24T02:43:51.979Z,55.83
2017-08-24T02:45:01.288Z,56.22
2017-08-24T02:46:11.520Z,56.8
2017-08-24T02:47:21.445Z,56.8
2017-08-24T02:48:31.718Z,56.41
2017-08-24T02:49:41.633Z,56.61
2017-08-24T02:50:51.863Z,56.8
2017-08-24T02:52:02.084Z,56.71
2017-08-24T02:53:12.316Z,56.32
2017-08-24T02:54:22.003Z,56.32
2017-08-24T02:55:31.933Z,56.41
2017-08-24T02:56:42.167Z,56.41
2017-08-24T02:57:51.788Z,56.51
2017-08-24T02:59:01.090Z,56.41
2017-08-24T03:00:11.336Z,56.51
2017-08-24T03:01:21.591Z,56.41
2017-08-24T03:02:31.211Z,56.61
2017-08-24T03:03:41.436Z,56.61
2017-08-24T03:04:51.074Z,56.61
2017-08-24T03:06:01.413Z,56.61
2017-08-24T03:07:11.044Z,56.41
2017-08-24T03:08:20.984Z,56.32
2017-08-24T03:09:30.974Z,56.32
2017-08-24T03:10:40.899Z,56.71
2017-08-24T03:11:50.843Z,56.8
2017-08-24T03:13:01.137Z,56.9
2017-08-24T03:14:11.403Z,56.61
2017-08-24T03:15:21.339Z,56.71
2017-08-24T03:16:30.954Z,56.61
2017-08-24T03:17:41.168Z,57.09
2017-08-24T03:18:50.804Z,56.32
2017-08-24T03:20:00.737Z,56.9
2017-08-24T03:21:10.053Z,56.99
2017-08-24T03:22:20.286Z,57.29
2017-08-24T03:23:30.368Z,57.09
2017-08-24T03:24:40.290Z,57.19
2017-08-24T03:25:49.908Z,57.26
2017-08-24T03:26:59.838Z,57.16
2017-08-24T03:28:10.082Z,56.96
2017-08-24T03:29:20.324Z,57.26
2017-08-24T03:30:30.580Z,56.96
2017-08-24T03:31:40.498Z,57.26
2017-08-24T03:32:50.110Z,57.16
2017-08-24T03:33:59.718Z,57.29
2017-08-24T03:35:09.991Z,57.26
2017-08-24T03:36:19.590Z,57.06
2017-08-24T03:37:29.510Z,57.16
2017-08-24T03:38:39.116Z,57.16
2017-08-24T03:39:49.337Z,57.06
2017-08-24T03:40:59.313Z,56.96
2017-08-24T03:42:09.541Z,57.16
2017-08-24T03:43:19.457Z,57.26
2017-08-24T03:44:29.373Z,57.16
2017-08-24T03:45:38.981Z,57.16
2017-08-24T03:46:48.365Z,56.96
2017-08-24T03:47:58.286Z,57.26
2017-08-24T03:49:07.887Z,57.16
2017-08-24T03:50:17.808Z,57.06
2017-08-24T03:51:27.739Z,57.06
2017-08-24T03:52:37.842Z,57.26
2017-08-24T03:53:48.090Z,57.26
2017-08-24T03:54:58.332Z,57.16
2017-08-24T03:56:08.252Z,57.26
2017-08-24T03:57:18.158Z,57.26
2017-08-24T03:58:28.439Z,57.26
2017-08-24T03:59:37.438Z,57.06
2017-08-24T04:00:47.670Z,57.16
2017-08-24T04:01:57.293Z,56.9
2017-08-24T04:03:07.530Z,56.77
2017-08-24T04:04:17.495Z,56.58
2017-08-24T04:07:59.777Z,56.68
2017-08-24T04:09:10.014Z,56.96
2017-08-24T04:10:19.316Z,56.68
2017-08-24T04:14:01.602Z,56.77
2017-08-24T04:15:11.226Z,57.06
2017-08-24T04:16:21.162Z,56.58
2017-08-24T04:17:31.415Z,56.29
2017-08-24T04:18:41.330Z,57.06
2017-08-24T04:19:50.946Z,56.96
2017-08-24T04:21:01.016Z,57.06
2017-08-24T04:22:10.934Z,57.26
2017-08-24T04:23:20.852Z,57.16
2017-08-24T04:24:31.115Z,56.96
2017-08-24T04:25:41.041Z,56.87
2017-08-24T04:26:50.550Z,56.77
2017-08-24T04:28:00.774Z,56.96
2017-08-24T04:29:11.019Z,56.58
2017-08-24T04:30:21.255Z,56.58
2017-08-24T04:31:31.191Z,56.58
2017-08-24T04:32:40.984Z,56.87
2017-08-24T04:33:50.925Z,56.58
2017-08-24T04:35:00.549Z,56.58
2017-08-24T04:36:10.484Z,56.77
2017-08-24T04:37:20.414Z,56.58
2017-08-24T04:38:30.632Z,56.58
2017-08-24T04:39:40.856Z,56.68
2017-08-24T04:40:49.855Z,56.77
2017-08-24T04:42:00.069Z,56.58
2017-08-24T04:43:09.375Z,56.77
2017-08-24T04:44:19.595Z,56.68
2017-08-24T04:45:29.512Z,56.87
2017-08-24T04:46:39.755Z,56.87
2017-08-24T04:47:49.675Z,56.87
2017-08-24T04:48:59.912Z,56.87
2017-08-24T04:50:09.867Z,56.48
2017-08-24T04:51:19.173Z,56.48
2017-08-24T04:52:29.473Z,56.58
2017-08-24T04:53:39.407Z,56.68
2017-08-24T04:54:49.020Z,56.77
2017-08-24T04:55:58.953Z,56.68
2017-08-24T04:57:08.892Z,56.39
2017-08-24T04:58:18.815Z,56.68
2017-08-24T04:59:29.040Z,56.68
2017-08-24T05:00:39.264Z,56.58
2017-08-24T05:01:49.177Z,56.29
2017-08-24T05:02:58.783Z,56.71
2017-08-24T05:04:08.700Z,56.8
2017-08-24T05:05:18.916Z,56.29
2017-08-24T05:06:28.524Z,56.22
2017-08-24T05:07:38.279Z,56.41
2017-08-24T05:08:48.516Z,56.32
2017-08-24T05:09:58.438Z,56.03
2017-08-24T05:11:27.561Z,56.13
2017-08-24T05:12:37.780Z,56.03
2017-08-24T05:13:48.048Z,55.74
2017-08-24T05:14:57.967Z,55.65
2017-08-24T05:16:08.221Z,55.93
2017-08-24T05:17:17.848Z,55.55
2017-08-24T05:18:27.867Z,55.65
2017-08-24T05:19:37.806Z,55.26
2017-08-24T05:20:47.751Z,55.45
2017-08-24T05:21:58.184Z,55.45
2017-08-24T05:23:08.095Z,55.35
2017-08-24T05:24:17.767Z,55.29
2017-08-24T05:25:28.022Z,55.26
2017-08-24T05:26:37.932Z,55.19
2017-08-24T05:27:48.163Z,54.71
2017-08-24T05:28:57.781Z,54.9
2017-08-24T05:30:07.843Z,54.8
2017-08-24T05:31:17.758Z,54.8
2017-08-24T05:32:27.367Z,54.9
2017-08-24T05:33:37.580Z,55.29
2017-08-24T05:34:47.503Z,55.09
2017-08-24T05:35:57.769Z,54.9
2017-08-24T05:37:07.069Z,55.19
2017-08-24T05:38:16.988Z,55.19
2017-08-24T05:39:26.912Z,54.8
2017-08-24T05:40:37.141Z,54.61
2017-08-24T05:41:46.890Z,54.41
2017-08-24T05:42:56.800Z,54.53
2017-08-24T05:44:07.027Z,54.32
2017-08-24T05:45:16.941Z,54.41
2017-08-24T05:46:27.155Z,54.83
2017-08-24T05:47:37.528Z,54.63
2017-08-24T05:48:47.465Z,54.53
2017-08-24T05:49:56.456Z,54.44
2017-08-24T05:51:06.085Z,54.73
2017-08-24T05:52:16.012Z,54.63
2017-08-24T05:53:26.367Z,54.63
2017-08-24T05:54:35.984Z,54.05
2017-08-24T05:55:45.916Z,54.05
2017-08-24T05:56:55.217Z,54.53
2017-08-24T05:58:04.831Z,54.63
2017-08-24T05:59:14.752Z,54.44
2017-08-24T06:00:24.691Z,54.35
2017-08-24T06:01:34.923Z,54.53
2017-08-24T06:02:44.839Z,54.53
2017-08-24T06:03:55.137Z,54.35
2017-08-24T06:05:05.096Z,54.53
2017-08-24T06:06:15.335Z,54.63
2017-08-24T06:07:25.264Z,54.53
2017-08-24T06:08:34.564Z,54.73
2017-08-24T06:09:44.491Z,54.63
2017-08-24T06:10:53.792Z,54.44
2017-08-24T06:12:03.712Z,54.63
2017-08-24T06:13:13.631Z,54.53
2017-08-24T06:14:23.563Z,54.63
2017-08-24T06:15:33.803Z,54.53
2017-08-24T06:16:43.738Z,54.44
2017-08-24T06:17:53.973Z,54.44
2017-08-24T06:19:04.201Z,54.35
2017-08-24T06:20:14.120Z,53.96
2017-08-24T06:21:24.365Z,54.53
2017-08-24T06:22:34.215Z,54.63
2017-08-24T06:23:43.835Z,54.53
2017-08-24T06:24:54.064Z,54.25
2017-08-24T06:26:04.311Z,54.37
2017-08-24T06:27:14.539Z,54.25
2017-08-24T06:28:23.963Z,54.27
2017-08-24T06:29:33.899Z,54.15
2017-08-24T06:30:43.540Z,54.08
2017-08-24T06:31:52.847Z,54.35
2017-08-24T06:33:02.770Z,54.37
2017-08-24T06:34:12.733Z,54.35
2017-08-24T06:35:22.347Z,54.37
2017-08-24T06:36:31.962Z,54.47
2017-08-24T06:37:41.883Z,54.47
2017-08-24T06:38:52.121Z,54.27
2017-08-24T06:40:02.420Z,54.27
2017-08-24T06:41:12.767Z,53.99
2017-08-24T06:42:22.988Z,54.08
2017-08-24T06:43:32.614Z,54.08
2017-08-24T06:44:42.547Z,54.17
2017-08-24T06:45:52.623Z,54.08
2017-08-24T06:47:01.926Z,53.99
2017-08-24T06:48:11.886Z,54.17
2017-08-24T06:49:22.123Z,54.17
2017-08-24T06:50:32.358Z,53.89
2017-08-24T06:51:42.124Z,54.08
2017-08-24T06:52:51.740Z,54.37
2017-08-24T06:54:01.367Z,54.08
2017-08-24T06:55:10.987Z,54.37
2017-08-24T06:56:20.622Z,54.37
2017-08-24T06:57:30.554Z,54.27
2017-08-24T06:58:40.820Z,54.17
2017-08-24T06:59:50.749Z,54.17
2017-08-24T07:01:00.677Z,54.08
2017-08-24T07:02:10.309Z,53.59
2017-08-24T07:03:20.384Z,53.59
2017-08-24T07:04:30.321Z,53.63
2017-08-24T07:05:40.249Z,53.53
2017-08-24T07:06:49.887Z,53.91
2017-08-24T07:08:00.111Z,54.11
2017-08-24T07:09:10.492Z,53.63
2017-08-24T07:10:20.436Z,53.59
2017-08-24T07:11:30.053Z,53.91
2017-08-24T07:12:40.285Z,53.81
2017-08-24T07:13:49.904Z,53.81
2017-08-24T07:15:00.233Z,53.43
2017-08-24T07:16:09.851Z,53.14
2017-08-24T07:17:20.095Z,53.23
2017-08-24T07:18:29.401Z,53.14
2017-08-24T07:19:39.634Z,53.23
2017-08-24T07:20:49.726Z,53.14
2017-08-24T07:21:59.952Z,53.53
2017-08-24T07:23:09.593Z,53.43
2017-08-24T07:24:19.206Z,53.33
2017-08-24T07:25:29.046Z,53.53
2017-08-24T07:26:38.982Z,53.53
2017-08-24T07:27:48.326Z,53.43
2017-08-24T07:28:57.996Z,53.63
2017-08-24T07:30:07.916Z,53.53
2017-08-24T07:31:18.161Z,53.14
2017-08-24T07:32:27.613Z,53.04
2017-08-24T07:33:37.536Z,53.23
2017-08-24T07:34:47.163Z,53.14
2017-08-24T07:35:57.123Z,53.36
2017-08-24T07:37:06.787Z,52.87
2017-08-24T07:38:16.815Z,53.55
2017-08-24T07:39:26.444Z,53.17
2017-08-24T07:40:36.724Z,52.97
2017-08-24T07:41:46.967Z,52.2
2017-08-24T07:42:56.929Z,51.54
2017-08-24T07:44:06.909Z,51.25
2017-08-24T07:45:16.831Z,50.6
2017-08-24T07:46:27.097Z,50.43
2017-08-24T07:47:36.724Z,49.87
2017-08-24T07:48:46.664Z,49.1
2017-08-24T07:49:57.060Z,49
2017-08-24T07:51:06.976Z,48.73
2017-08-24T07:52:17.222Z,48.27
2017-08-24T07:53:27.464Z,48.18
2017-08-24T07:54:37.392Z,47.78
2017-08-24T07:55:47.387Z,47.59
2017-08-24T07:56:56.754Z,47.42
2017-08-24T07:58:06.425Z,47.32
2017-08-24T07:59:16.050Z,47.03
2017-08-24T08:00:26.003Z,46.84
2017-08-24T08:01:36.038Z,46.96
2017-08-24T08:02:46.266Z,47.15
2017-08-24T08:03:56.219Z,47.34
2017-08-24T08:05:05.849Z,47.61
2017-08-24T08:06:15.215Z,48.1
2017-08-24T08:07:24.686Z,48.68
2017-08-24T08:08:34.922Z,48.97
2017-08-24T08:09:44.861Z,49.34
2017-08-24T08:10:54.777Z,49.15
2017-08-24T08:12:04.725Z,49.44
2017-08-24T08:13:14.345Z,50.09
2017-08-24T08:14:24.595Z,50.09
2017-08-24T08:15:34.823Z,50.38
2017-08-24T08:16:44.137Z,50.46
2017-08-24T08:17:54.368Z,50.74
2017-08-24T08:19:04.048Z,50.56
2017-08-24T08:20:13.371Z,50.94
2017-08-24T08:21:22.997Z,51.21
2017-08-24T08:22:32.931Z,51.31
2017-08-24T08:23:42.542Z,51.31
2017-08-24T08:24:52.619Z,51.11
2017-08-24T08:26:01.318Z,51.79
2017-08-24T08:27:11.237Z,51.59
2017-08-24T08:28:21.488Z,51.89
2017-08-24T08:29:31.730Z,52.06
2017-08-24T08:30:41.051Z,51.96
2017-08-24T08:31:51.286Z,52.06
2017-08-24T08:33:01.533Z,52.06
2017-08-24T08:34:11.155Z,51.96
2017-08-24T08:35:21.384Z,52.25
2017-08-24T08:36:31.323Z,52.25
2017-08-24T08:37:41.289Z,52.25
2017-08-24T08:38:51.233Z,52.34
2017-08-24T08:40:01.168Z,52.25
2017-08-24T08:41:11.110Z,52.34
2017-08-24T08:42:21.680Z,52.25
2017-08-24T08:43:31.296Z,52.34
2017-08-24T08:44:40.308Z,52.34
2017-08-24T08:45:49.699Z,52.44
2017-08-24T08:46:58.700Z,52.34
2017-08-24T08:48:08.133Z,52.34
2017-08-24T08:49:17.742Z,52.34
2017-08-24T08:50:26.399Z,53.02
2017-08-24T08:51:35.060Z,52.73
2017-08-24T08:52:44.038Z,52.83
2017-08-24T08:53:53.654Z,52.73
2017-08-24T08:55:03.261Z,52.54
2017-08-24T08:56:12.251Z,52.73
2017-08-24T08:57:21.233Z,52.71
2017-08-24T08:58:30.196Z,52.71
2017-08-24T08:59:39.215Z,52.73
2017-08-24T09:00:47.877Z,52.64
2017-08-24T09:01:57.164Z,52.9
2017-08-24T09:03:06.463Z,53.19
2017-08-24T09:04:15.113Z,53.22
2017-08-24T09:05:23.936Z,52.9
2017-08-24T09:06:32.901Z,52.9
2017-08-24T09:07:41.876Z,52.8
2017-08-24T09:08:52.173Z,52.9
2017-08-24T09:10:01.473Z,53.02
2017-08-24T09:11:11.095Z,53
2017-08-24T09:12:20.382Z,52.9
2017-08-24T09:16:02.350Z,52.9
2017-08-24T09:17:11.349Z,52.9
2017-08-24T09:18:20.972Z,52.8
2017-08-24T09:19:29.956Z,52.8
2017-08-24T09:20:39.242Z,52.61
2017-08-24T09:21:47.944Z,53
2017-08-24T09:22:57.928Z,52.9
2017-08-24T09:24:07.526Z,53
2017-08-24T09:25:17.169Z,53.09
2017-08-24T09:26:26.479Z,53.29
2017-08-24T09:27:36.143Z,53.19
2017-08-24T09:28:45.120Z,53.09
2017-08-24T09:29:53.780Z,53.09
2017-08-24T09:31:02.436Z,53.49
2017-08-24T09:32:11.720Z,53.67
2017-08-24T09:33:21.016Z,53.58
2017-08-24T09:34:30.297Z,53
2017-08-24T09:35:39.892Z,53.39
2017-08-24T09:36:48.881Z,53.49
2017-08-24T09:37:57.545Z,53.39
2017-08-24T09:39:06.883Z,53.39
2017-08-24T09:40:16.205Z,53.58
2017-08-24T09:41:25.812Z,53.19
2017-08-24T09:42:34.798Z,53.19
2017-08-24T09:43:44.081Z,53.09
2017-08-24T09:44:53.682Z,53.09
2017-08-24T09:46:02.345Z,53.58
2017-08-24T09:47:11.357Z,53.49
2017-08-24T09:48:20.970Z,53.55
2017-08-24T09:49:30.254Z,53.39
2017-08-24T09:50:40.204Z,53.17
2017-08-24T09:51:49.214Z,53.45
2017-08-24T09:52:58.190Z,53.26
2017-08-24T09:54:07.168Z,53.26
2017-08-24T09:55:16.218Z,53.17
2017-08-24T09:56:25.694Z,53.26
2017-08-24T09:57:34.362Z,53.17
2017-08-24T09:58:43.023Z,53.26
2017-08-24T09:59:51.684Z,54.03
2017-08-24T10:01:00.665Z,53.36
2017-08-24T10:02:10.354Z,53.26
2017-08-24T10:03:19.629Z,53.55
2017-08-24T10:04:28.294Z,53.17
2017-08-24T10:05:37.572Z,53.26
2017-08-24T10:06:47.173Z,53.55
2017-08-24T10:07:56.628Z,53.45
2017-08-24T10:09:06.263Z,53.65
2017-08-24T10:10:15.548Z,53.65
2017-08-24T10:11:24.833Z,53.45
2017-08-24T10:12:33.834Z,53.75
2017-08-24T10:13:43.172Z,53.67
2017-08-24T10:14:52.147Z,53.65
2017-08-24T10:16:01.781Z,53.58
2017-08-24T10:17:11.093Z,53.45
2017-08-24T10:18:21.008Z,53.17
2017-08-24T10:19:30.145Z,53.26
2017-08-24T10:20:39.123Z,53.36
2017-08-24T10:21:48.108Z,53.49
2017-08-24T10:22:56.755Z,53.36
2017-08-24T10:24:05.447Z,53.36
2017-08-24T10:25:14.775Z,53.36
2017-08-24T10:26:23.845Z,53.26
2017-08-24T10:27:33.133Z,53.36
2017-08-24T10:28:41.877Z,53.55
2017-08-24T10:29:51.849Z,53.55
2017-08-24T10:31:01.277Z,53.45
2017-08-24T10:32:10.272Z,53.36
2017-08-24T10:33:18.956Z,53.17
2017-08-24T10:34:28.567Z,53.45
2017-08-24T10:35:37.843Z,53.17
2017-08-24T10:36:47.439Z,53.36
2017-08-24T10:37:56.444Z,53.65
2017-08-24T10:39:05.792Z,53.55
2017-08-24T10:40:15.095Z,53.45
2017-08-24T10:41:25.018Z,53.45
2017-08-24T10:42:33.821Z,53.65
2017-08-24T10:43:42.790Z,53.45
2017-08-24T10:44:51.446Z,53.65
2017-08-24T10:46:00.773Z,53.75
2017-08-24T10:47:09.757Z,53.85
2017-08-24T10:48:19.171Z,53.94
2017-08-24T10:49:28.140Z,53.55
2017-08-24T10:50:37.112Z,53.75
2017-08-24T10:51:45.771Z,54.13
2017-08-24T10:52:54.765Z,54.23
2017-08-24T10:54:03.742Z,54.33
2017-08-24T10:55:12.720Z,54.13
2017-08-24T10:56:22.007Z,54.23
2017-08-24T10:57:31.320Z,54.23
2017-08-24T10:58:40.618Z,54.13
2017-08-24T10:59:49.704Z,54.23
2017-08-24T11:00:58.995Z,53.91
2017-08-24T11:02:08.296Z,54.01
2017-08-24T11:03:17.610Z,54.21
2017-08-24T11:04:26.896Z,53.91
2017-08-24T11:05:36.050Z,54.01
2017-08-24T11:06:45.121Z,54.03
2017-08-24T11:07:53.772Z,53.91
2017-08-24T11:09:02.770Z,54.03
2017-08-24T11:10:11.747Z,54.03
2017-08-24T11:11:20.400Z,54.03
2017-08-24T11:12:29.373Z,54.11
2017-08-24T11:13:38.978Z,54.13
2017-08-24T11:14:48.652Z,54.11
2017-08-24T11:15:57.659Z,54.01
2017-08-24T11:17:06.944Z,54.13
2017-08-24T11:18:16.869Z,54.3
2017-08-24T11:19:26.811Z,54.52
2017-08-24T11:20:35.506Z,54.01
2017-08-24T11:21:44.794Z,54.01
2017-08-24T11:22:53.619Z,53.91
2017-08-24T11:24:02.903Z,54.01
2017-08-24T11:25:11.935Z,54.01
2017-08-24T11:26:20.931Z,53.91
2017-08-24T11:27:29.612Z,54.01
2017-08-24T11:28:38.747Z,54.03
2017-08-24T11:29:48.056Z,53.91
2017-08-24T11:30:57.023Z,54.01
2017-08-24T11:32:06.370Z,54.23
2017-08-24T11:33:15.698Z,54.03
2017-08-24T11:34:25.768Z,54.21
2017-08-24T11:35:34.436Z,54.23
2017-08-24T11:36:44.365Z,54.11
2017-08-24T11:37:53.980Z,54.01
2017-08-24T11:39:02.638Z,54.11
2017-08-24T11:40:11.601Z,54.01
2017-08-24T11:41:20.259Z,54.21
2017-08-24T11:42:29.231Z,54.13
2017-08-24T11:43:37.917Z,54.01
2017-08-24T11:44:47.305Z,54.21
2017-08-24T11:45:56.775Z,54.21
2017-08-24T11:47:05.464Z,54.01
2017-08-24T11:48:14.093Z,54.21
2017-08-24T11:49:23.090Z,54.33
2017-08-24T11:50:32.089Z,54.03
2017-08-24T11:51:41.577Z,54.01
2017-08-24T11:52:50.954Z,53.91
2017-08-24T11:54:00.270Z,54.01
2017-08-24T11:55:09.253Z,54.13
2017-08-24T11:56:18.598Z,54.13
2017-08-24T11:57:28.094Z,54.01
2017-08-24T11:58:37.430Z,54.01
2017-08-24T11:59:46.422Z,54.21
2017-08-24T12:00:55.503Z,54.21
2017-08-24T12:02:04.158Z,54.21
2017-08-24T12:03:13.606Z,54.11
2017-08-24T12:04:22.875Z,54.01
2017-08-24T12:05:32.195Z,54.11
2017-08-24T12:06:40.862Z,54.01
2017-08-24T12:07:50.159Z,54.01
2017-08-24T12:08:59.273Z,53.91
2017-08-24T12:10:08.265Z,54.21
2017-08-24T12:11:17.243Z,53.81
2017-08-24T12:12:26.216Z,54.21
2017-08-24T12:13:34.890Z,54.21
2017-08-24T12:14:44.015Z,54.11
2017-08-24T12:15:53.004Z,54.01
2017-08-24T12:17:02.289Z,54.01
2017-08-24T12:18:11.592Z,54.01
2017-08-24T12:19:20.571Z,54.21
2017-08-24T12:20:29.590Z,54.21
2017-08-24T12:21:39.513Z,54.39
2017-08-24T12:22:48.498Z,54.3
2017-08-24T12:23:57.792Z,54.21
2017-08-24T12:25:06.460Z,54.49
2017-08-24T12:26:15.222Z,54.3
2017-08-24T12:27:24.511Z,54.3
2017-08-24T12:28:33.518Z,54.3
2017-08-24T12:29:42.497Z,54.39
2017-08-24T12:30:51.805Z,54.3
2017-08-24T12:32:01.133Z,54.39
2017-08-24T12:33:09.807Z,54.49
2017-08-24T12:34:18.787Z,54.49
2017-08-24T12:35:27.472Z,54.39
2017-08-24T12:36:37.098Z,54.39
2017-08-24T12:37:46.091Z,54.39
2017-08-24T12:38:55.377Z,54.49
2017-08-24T12:40:04.038Z,54.3
2017-08-24T12:41:13.312Z,54.39
2017-08-24T12:42:22.290Z,54.49
2017-08-24T12:43:31.420Z,54.39
2017-08-24T12:44:40.431Z,54.39
2017-08-24T12:45:49.501Z,54.39
2017-08-24T12:46:58.595Z,54.3
2017-08-24T12:48:07.760Z,54.49
2017-08-24T12:49:16.432Z,54.49
2017-08-24T12:50:25.090Z,54.3
2017-08-24T12:51:34.415Z,54.3
2017-08-24T12:52:44.072Z,54.3
2017-08-24T12:53:53.386Z,54.3
2017-08-24T12:55:02.104Z,54.3
2017-08-24T12:56:11.111Z,54.39
2017-08-24T12:57:20.075Z,54.39
2017-08-24T12:58:29.081Z,54.39
2017-08-24T12:59:37.746Z,54.39
2017-08-24T13:00:46.705Z,54.21
2017-08-24T13:01:56.033Z,54.39
2017-08-24T13:03:04.682Z,54.39
2017-08-24T13:04:13.336Z,54.11
2017-08-24T13:05:22.310Z,53.81
2017-08-24T13:06:31.012Z,54.39
2017-08-24T13:07:40.613Z,54.01
2017-08-24T13:08:49.603Z,54.21
2017-08-24T13:09:58.587Z,54.3
2017-08-24T13:11:07.574Z,54.11
2017-08-24T13:12:16.461Z,54.01
2017-08-24T13:13:25.756Z,54.11
2017-08-24T13:14:34.721Z,54.01
2017-08-24T13:15:44.006Z,54.3
2017-08-24T13:16:53.309Z,54.21
2017-08-24T13:18:02.440Z,54.01
2017-08-24T13:19:11.141Z,54.01
2017-08-24T13:20:20.418Z,54.01
2017-08-24T13:21:29.732Z,54.01
2017-08-24T13:22:39.035Z,54.01
2017-08-24T13:23:48.360Z,54.21
2017-08-24T13:24:57.338Z,54.21
2017-08-24T13:26:07.321Z,54.11
2017-08-24T13:27:17.241Z,54.11
2017-08-24T13:28:26.525Z,54.21
2017-08-24T13:29:35.554Z,54.21
2017-08-24T13:30:44.905Z,54.01
2017-08-24T13:31:53.875Z,54.01
2017-08-24T13:33:02.556Z,54.21
2017-08-24T13:34:11.848Z,54.21
2017-08-24T13:35:21.462Z,54.01
2017-08-24T13:36:30.444Z,54.01
2017-08-24T13:37:39.119Z,54.11
2017-08-24T13:38:48.086Z,54.3
2017-08-24T13:39:56.748Z,54.01
2017-08-24T13:41:06.710Z,54.39
2017-08-24T13:42:16.325Z,54.39
2017-08-24T13:43:25.307Z,54.39
2017-08-24T13:44:34.591Z,54.39
2017-08-24T13:45:43.894Z,54.11
2017-08-24T13:46:53.337Z,54.3
2017-08-24T13:48:02.307Z,53.85
2017-08-24T13:49:11.618Z,54.3
2017-08-24T13:50:20.907Z,54.3
2017-08-24T13:51:30.834Z,54.21
2017-08-24T13:52:39.603Z,53.63
2017-08-24T13:53:48.896Z,54.01
2017-08-24T13:54:58.515Z,54.03
2017-08-24T13:56:07.817Z,53.72
2017-08-24T13:57:17.422Z,53.65
2017-08-24T13:58:26.705Z,53.53
2017-08-24T13:59:36.057Z,53.65
2017-08-24T14:00:45.049Z,53.53
2017-08-24T14:01:54.038Z,53.53
2017-08-24T14:03:02.702Z,53.53
2017-08-24T14:04:11.425Z,53.65
2017-08-24T14:05:20.091Z,53.55
2017-08-24T14:06:29.696Z,53.63
2017-08-24T14:07:38.369Z,53.91
2017-08-24T14:08:47.040Z,53.75
2017-08-24T14:09:56.493Z,54.11
2017-08-24T14:11:06.107Z,54.03
2017-08-24T14:12:15.706Z,53.53
2017-08-24T14:13:24.998Z,54.03
2017-08-24T14:14:34.286Z,54.11
2017-08-24T14:15:43.412Z,53.75
2017-08-24T14:16:52.732Z,53.91
2017-08-24T14:18:01.709Z,53.63
2017-08-24T14:19:11.348Z,53.63
2017-08-24T14:20:20.342Z,53.55
2017-08-24T14:21:29.466Z,53.72
2017-08-24T14:22:38.453Z,53.53
2017-08-24T14:23:47.427Z,53.63
2017-08-24T14:24:56.082Z,53.55
2017-08-24T14:26:05.367Z,54.03
2017-08-24T14:27:14.209Z,53.72
2017-08-24T14:28:23.510Z,54.21
2017-08-24T14:29:32.485Z,54.33
2017-08-24T14:30:42.467Z,53.43
2017-08-24T14:31:51.450Z,54.13
2017-08-24T14:33:00.909Z,54.43
2017-08-24T14:34:09.574Z,53.55
2017-08-24T14:35:18.580Z,53.91
2017-08-24T14:36:27.574Z,53.53
2017-08-24T14:37:36.549Z,53.63
2017-08-24T14:38:45.999Z,54.11
2017-08-24T14:39:54.969Z,54.13
2017-08-24T14:41:04.280Z,54.23
2017-08-24T14:42:13.897Z,54.49
2017-08-24T14:43:22.561Z,54.39
2017-08-24T14:44:31.703Z,54.01
2017-08-24T14:45:40.693Z,54.3
2017-08-24T14:46:49.989Z,54.39
2017-08-24T14:47:59.597Z,54.21
2017-08-24T14:49:08.909Z,54.01
2017-08-24T14:50:17.568Z,54.39
2017-08-24T14:51:26.241Z,54.3
2017-08-24T14:52:35.239Z,54.11
2017-08-24T14:53:44.225Z,54.39
2017-08-24T14:54:53.208Z,54.11
2017-08-24T14:56:02.293Z,54.11
2017-08-24T14:57:11.280Z,54.21
2017-08-24T14:58:20.591Z,54.21
2017-08-24T14:59:29.572Z,54.21
2017-08-24T15:00:38.867Z,54.21
2017-08-24T15:01:47.835Z,54.11
2017-08-24T15:02:57.122Z,54.01
2017-08-24T15:04:05.806Z,54.43
2017-08-24T15:05:15.077Z,54.21
2017-08-24T15:06:24.055Z,54.23
2017-08-24T15:07:32.874Z,54.21